Terminal Aerodrome Forecast
Issued by NWS

Home | Current Version | Previous Version | Text Only | Print | Product List | Glossary On
Versions: 1 2 3 4 5 6 7 8 9 10 11 12 13 14 15 16 17 18 19 20 21 22 23 24 25
000
FTUS45 KSLC 030123 AAA
TAFLGU
TAF AMD
KLGU 030123Z 0301/0324 17012KT P6SM FEW120 BKN150
     FM030900 17008KT P6SM VCSH SCT100 BKN130
     FM031600 17010KT P6SM -SHRA SCT080 BKN110=

USA.gov is the U.S. government's official web portal to all federal, state and local government web resources and services.